createdAt,value
2022-09-16T00:02:00.577Z,1.88
2022-09-16T00:05:03.042Z,1.73
2022-09-16T00:08:05.204Z,1.80
2022-09-16T00:11:07.331Z,1.73
2022-09-16T00:14:10.350Z,2.63
2022-09-16T00:17:12.542Z,2.40
2022-09-16T00:20:14.584Z,1.65
2022-09-16T00:23:17.823Z,1.40
2022-09-16T00:26:20.214Z,2.10
2022-09-16T00:29:22.258Z,2.22
2022-09-16T00:32:25.241Z,2.55
2022-09-16T00:35:27.427Z,2.20
2022-09-16T00:38:29.514Z,1.85
2022-09-16T00:41:36.307Z,1.85
2022-09-16T00:44:57.377Z,1.75
2022-09-16T00:48:04.196Z,1.73
2022-09-16T00:51:09.876Z,2.45
2022-09-16T00:54:12.519Z,2.10
2022-09-16T00:57:16.021Z,2.28
2022-09-16T01:00:18.148Z,1.80
2022-09-16T01:03:21.017Z,1.70
2022-09-16T01:06:26.914Z,2.10
2022-09-16T01:09:31.153Z,1.80
2022-09-16T01:12:35.466Z,1.70
2022-09-16T01:15:46.195Z,2.50
2022-09-16T01:18:48.359Z,1.67
2022-09-16T01:22:22.831Z,1.73
2022-09-16T01:25:43.023Z,1.95
2022-09-16T01:29:06.579Z,1.73
2022-09-16T01:32:33.709Z,1.30
2022-09-16T01:36:25.202Z,1.83
2022-09-16T01:39:55.174Z,1.67
2022-09-16T01:43:06.706Z,1.58
2022-09-16T01:46:17.694Z,1.90
2022-09-16T01:49:36.653Z,1.77
2022-09-16T01:53:06.297Z,1.40
2022-09-16T01:59:40.442Z,1.77
2022-09-16T02:02:58.783Z,1.52
2022-09-16T02:06:06.344Z,2.28
2022-09-16T02:09:18.565Z,2.28
2022-09-16T02:12:29.927Z,1.77
2022-09-16T02:15:34.477Z,2.03
2022-09-16T02:18:41.195Z,1.83
2022-09-16T02:21:45.808Z,2.65
2022-09-16T02:24:48.710Z,2.55
2022-09-16T02:27:53.960Z,1.83
2022-09-16T02:31:00.258Z,1.48
2022-09-16T02:34:32.803Z,1.88
2022-09-16T02:37:41.065Z,1.63
2022-09-16T02:40:51.455Z,2.08
2022-09-16T02:43:54.258Z,1.88
2022-09-16T02:47:13.971Z,2.03
2022-09-16T02:50:25.466Z,1.83
2022-09-16T02:53:48.377Z,1.80
2022-09-16T02:56:51.054Z,1.70
2022-09-16T02:59:53.794Z,3.03
2022-09-16T03:02:55.972Z,2.63
2022-09-16T03:06:10.624Z,2.50
2022-09-16T03:09:15.379Z,1.80
2022-09-16T03:12:39.680Z,2.63
2022-09-16T03:15:44.761Z,2.10
2022-09-16T03:19:07.424Z,2.30
2022-09-16T03:22:22.775Z,2.10
2022-09-16T03:25:30.523Z,2.42
2022-09-16T03:28:54.882Z,3.13
2022-09-16T03:32:08.774Z,2.50
2022-09-16T03:35:23.442Z,3.08
2022-09-16T03:38:26.336Z,2.15
2022-09-16T03:41:32.242Z,3.03
2022-09-16T03:44:36.356Z,2.25
2022-09-16T03:47:38.608Z,2.42
2022-09-16T03:50:41.173Z,2.00
2022-09-16T03:53:43.701Z,2.35
2022-09-16T03:56:46.068Z,2.58
2022-09-16T03:59:48.216Z,2.60
2022-09-16T04:02:50.626Z,2.75
2022-09-16T04:05:53.972Z,2.88
2022-09-16T04:09:01.121Z,3.10
2022-09-16T04:12:04.685Z,2.50
2022-09-16T04:15:07.262Z,3.35
2022-09-16T04:18:09.395Z,2.80
2022-09-16T04:21:11.888Z,2.42
2022-09-16T04:24:14.131Z,2.80
2022-09-16T04:27:16.215Z,2.97
2022-09-16T04:30:18.951Z,2.67
2022-09-16T04:33:21.408Z,3.55
2022-09-16T04:36:23.571Z,2.15
2022-09-16T04:39:25.734Z,3.00
2022-09-16T04:42:27.940Z,3.13
2022-09-16T04:45:30.000Z,2.22
2022-09-16T04:48:32.776Z,2.33
2022-09-16T04:51:34.811Z,2.45
2022-09-16T04:54:36.777Z,3.33
2022-09-16T04:57:38.758Z,3.03
2022-09-16T05:00:41.245Z,2.67
2022-09-16T05:03:45.088Z,3.35
2022-09-16T05:06:47.032Z,3.10
2022-09-16T05:09:49.082Z,1.73
2022-09-16T05:12:53.172Z,2.05
2022-09-16T05:15:55.191Z,1.95
2022-09-16T05:18:59.998Z,1.80
2022-09-16T05:22:07.163Z,1.75
2022-09-16T05:25:09.554Z,2.00
2022-09-16T05:28:11.550Z,3.03
2022-09-16T05:31:26.814Z,2.20
2022-09-16T05:34:29.024Z,2.60
2022-09-16T05:37:31.100Z,2.55
2022-09-16T05:40:34.304Z,1.92
2022-09-16T05:43:37.317Z,2.08
2022-09-16T05:46:43.907Z,2.50
2022-09-16T05:49:46.294Z,2.40
2022-09-16T05:52:48.240Z,2.25
2022-09-16T05:56:02.082Z,2.10
2022-09-16T05:59:04.264Z,2.83
2022-09-16T06:02:06.610Z,2.20
2022-09-16T06:05:09.688Z,2.63
2022-09-16T06:08:11.753Z,3.53
2022-09-16T06:11:13.921Z,2.67
2022-09-16T06:14:18.302Z,3.10
2022-09-16T06:17:20.323Z,3.45
2022-09-16T06:20:22.725Z,3.28
2022-09-16T06:23:25.423Z,3.22
2022-09-16T06:26:27.788Z,3.70
2022-09-16T06:29:29.725Z,3.88
2022-09-16T06:32:32.261Z,3.58
2022-09-16T06:35:35.710Z,4.53
2022-09-16T06:38:38.192Z,2.50
2022-09-16T06:41:40.728Z,2.33
2022-09-16T06:44:42.875Z,3.17
2022-09-16T06:47:44.944Z,1.92
2022-09-16T06:50:47.047Z,2.30
2022-09-16T06:53:50.418Z,1.95
2022-09-16T06:56:52.938Z,2.15
2022-09-16T06:59:54.946Z,2.13
2022-09-16T07:02:56.946Z,2.25
2022-09-16T07:06:03.257Z,2.47
2022-09-16T07:09:05.995Z,2.78
2022-09-16T07:12:08.455Z,2.60
2022-09-16T07:15:10.921Z,2.72
2022-09-16T07:18:12.888Z,3.15
2022-09-16T07:21:17.430Z,3.22
2022-09-16T07:24:19.687Z,3.20
2022-09-16T07:27:21.739Z,3.67
2022-09-16T07:30:23.806Z,3.20
2022-09-16T07:33:25.852Z,3.42
2022-09-16T07:36:30.536Z,2.80
2022-09-16T07:39:32.599Z,3.00
2022-09-16T07:42:34.634Z,1.98
2022-09-16T07:45:36.617Z,3.08
2022-09-16T07:48:39.843Z,2.15
2022-09-16T07:51:42.190Z,2.53
2022-09-16T07:54:44.157Z,2.15
2022-09-16T07:57:46.272Z,2.53
2022-09-16T08:00:49.628Z,2.40
2022-09-16T08:03:52.129Z,1.80
2022-09-16T08:06:54.191Z,1.75
2022-09-16T08:09:56.156Z,1.90
2022-09-16T08:12:58.257Z,1.77
2022-09-16T08:16:02.929Z,1.98
2022-09-16T08:19:05.113Z,2.20
2022-09-16T08:22:07.489Z,2.67
2022-09-16T08:25:09.632Z,2.35
2022-09-16T08:28:16.239Z,3.50
2022-09-16T08:31:19.604Z,2.70
2022-09-16T08:34:21.700Z,2.50
2022-09-16T08:37:23.806Z,2.40
2022-09-16T08:40:34.829Z,2.35
2022-09-16T08:43:43.308Z,3.47
2022-09-16T08:46:57.417Z,2.80
2022-09-16T08:50:04.030Z,3.28
2022-09-16T08:53:15.372Z,3.08
2022-09-16T08:56:21.520Z,2.63
2022-09-16T08:59:27.952Z,3.42
2022-09-16T09:02:48.057Z,2.78
2022-09-16T09:05:56.547Z,3.08
2022-09-16T09:09:24.792Z,2.13
2022-09-16T09:12:38.479Z,2.63
2022-09-16T09:15:48.979Z,3.42
2022-09-16T09:19:05.858Z,2.55
2022-09-16T09:22:16.715Z,2.28
2022-09-16T09:25:21.699Z,2.95
2022-09-16T09:28:45.690Z,2.33
2022-09-16T09:32:02.838Z,2.72
2022-09-16T09:35:32.900Z,2.35
2022-09-16T09:39:03.959Z,2.30
2022-09-16T09:42:21.417Z,2.40
2022-09-16T09:45:29.892Z,2.75
2022-09-16T09:49:00.867Z,2.58
2022-09-16T09:52:13.533Z,2.10
2022-09-16T09:55:21.438Z,2.47
2022-09-16T09:58:37.352Z,2.40
2022-09-16T10:01:39.318Z,3.20
2022-09-16T10:04:41.382Z,2.33
2022-09-16T10:07:43.684Z,2.05
2022-09-16T10:10:54.950Z,1.80
2022-09-16T10:14:00.883Z,1.63
2022-09-16T10:17:15.675Z,1.00
2022-09-16T10:20:37.899Z,1.77
2022-09-16T10:23:40.766Z,1.70
2022-09-16T10:26:42.707Z,1.30
2022-09-16T10:29:44.730Z,1.38
2022-09-16T10:33:13.041Z,1.38
2022-09-16T10:36:21.897Z,1.52
2022-09-16T10:39:26.157Z,2.05
2022-09-16T10:42:29.504Z,1.65
2022-09-16T10:45:35.672Z,1.30
2022-09-16T10:48:41.611Z,1.75
2022-09-16T10:51:44.840Z,1.35
2022-09-16T10:54:47.938Z,1.52
2022-09-16T10:57:50.196Z,2.05
2022-09-16T11:01:07.180Z,1.73
2022-09-16T11:04:44.852Z,1.45
2022-09-16T11:07:53.779Z,1.60
2022-09-16T11:11:12.177Z,1.92
2022-09-16T11:14:35.681Z,1.45
2022-09-16T11:17:48.950Z,2.10
2022-09-16T11:21:18.858Z,1.70
2022-09-16T11:24:44.780Z,1.70
2022-09-16T11:28:11.515Z,1.80
2022-09-16T11:31:33.742Z,1.52
2022-09-16T11:34:44.353Z,0.85
2022-09-16T11:38:07.309Z,1.95
2022-09-16T11:41:12.843Z,1.55
2022-09-16T11:44:36.497Z,1.60
2022-09-16T11:47:45.530Z,1.38
2022-09-16T11:51:03.454Z,1.35
2022-09-16T11:54:39.239Z,1.58
2022-09-16T11:57:53.713Z,1.25
2022-09-16T12:01:00.031Z,1.10
2022-09-16T12:04:05.097Z,1.23
2022-09-16T12:07:19.832Z,1.98
2022-09-16T12:10:27.981Z,1.45
2022-09-16T12:13:47.782Z,1.23
2022-09-16T12:16:57.276Z,1.30
2022-09-16T12:20:07.940Z,1.67
2022-09-16T12:23:25.095Z,1.63
2022-09-16T12:26:34.139Z,1.30
2022-09-16T12:29:52.175Z,1.08
2022-09-16T12:33:06.168Z,0.90
2022-09-16T12:36:23.886Z,1.10
2022-09-16T12:39:26.159Z,1.70
2022-09-16T12:42:44.444Z,1.40
2022-09-16T12:46:13.298Z,1.00
2022-09-16T12:49:24.459Z,1.52
2022-09-16T12:52:34.834Z,1.27
2022-09-16T12:55:39.733Z,1.48
2022-09-16T12:59:13.032Z,1.70
2022-09-16T13:02:26.465Z,1.45
2022-09-16T13:05:32.553Z,1.40
2022-09-16T13:08:36.537Z,1.50
2022-09-16T13:15:05.459Z,1.60
2022-09-16T13:18:14.619Z,1.00
2022-09-16T13:21:27.937Z,1.33
2022-09-16T13:24:35.414Z,1.05
2022-09-16T13:27:39.852Z,1.40
2022-09-16T13:30:42.024Z,1.00
2022-09-16T13:33:57.459Z,1.30
2022-09-16T13:36:59.493Z,1.58
2022-09-16T13:40:29.034Z,1.00
2022-09-16T13:43:50.663Z,1.30
2022-09-16T13:46:52.839Z,1.60
2022-09-16T13:50:00.322Z,1.27
2022-09-16T13:53:21.416Z,1.13
2022-09-16T13:56:49.696Z,1.38
2022-09-16T14:00:17.566Z,1.30
2022-09-16T14:03:38.249Z,1.08
2022-09-16T14:06:53.050Z,0.90
2022-09-16T14:10:13.589Z,2.05
2022-09-16T14:13:21.581Z,1.50
2022-09-16T14:16:29.388Z,1.65
2022-09-16T14:19:42.662Z,1.25
2022-09-16T14:22:45.108Z,1.33
2022-09-16T14:25:47.136Z,1.63
2022-09-16T14:28:49.987Z,1.42
2022-09-16T14:31:55.340Z,1.58
2022-09-16T14:35:02.355Z,1.42
2022-09-16T14:38:14.123Z,1.67
2022-09-16T14:41:47.177Z,2.08
2022-09-16T14:44:54.955Z,1.45
2022-09-16T14:47:59.120Z,1.60
2022-09-16T14:51:02.758Z,0.90
2022-09-16T14:54:13.177Z,1.42
2022-09-16T14:57:24.056Z,1.35
2022-09-16T15:00:49.837Z,1.35
2022-09-16T15:04:14.814Z,1.38
2022-09-16T15:07:23.408Z,2.08
2022-09-16T15:10:39.734Z,1.70
2022-09-16T15:13:53.087Z,1.95
2022-09-16T15:17:01.416Z,1.77
2022-09-16T15:20:03.661Z,1.40
2022-09-16T15:23:12.716Z,1.58
2022-09-16T15:26:24.083Z,1.83
2022-09-16T15:29:30.342Z,1.63
2022-09-16T15:32:42.860Z,1.42
2022-09-16T15:35:51.196Z,1.90
2022-09-16T15:38:58.084Z,1.65
2022-09-16T15:42:16.448Z,1.70
2022-09-16T15:45:22.699Z,1.50
2022-09-16T15:48:26.989Z,1.80
2022-09-16T15:51:48.241Z,1.88
2022-09-16T15:54:53.527Z,1.98
2022-09-16T15:58:21.619Z,2.20
2022-09-16T16:01:53.139Z,1.77
2022-09-16T16:05:07.495Z,2.38
2022-09-16T16:08:10.186Z,1.88
2022-09-16T16:11:18.186Z,1.92
2022-09-16T16:14:20.554Z,1.98
2022-09-16T16:17:23.833Z,1.52
2022-09-16T16:20:25.905Z,2.88
2022-09-16T16:23:28.482Z,2.33
2022-09-16T16:26:30.387Z,2.58
2022-09-16T16:29:32.701Z,1.80
2022-09-16T16:32:35.151Z,1.45
2022-09-16T16:35:37.100Z,1.95
2022-09-16T16:38:40.479Z,1.67
2022-09-16T16:41:42.888Z,2.53
2022-09-16T16:44:44.781Z,2.35
2022-09-16T16:47:46.965Z,2.10
2022-09-16T16:50:57.240Z,4.00
2022-09-16T16:53:59.351Z,1.60
2022-09-16T16:57:03.659Z,2.13
2022-09-16T17:00:06.941Z,2.15
2022-09-16T17:03:08.934Z,1.55
2022-09-16T17:06:11.532Z,2.08
2022-09-16T17:09:16.099Z,2.05
2022-09-16T17:12:18.348Z,1.90
2022-09-16T17:15:20.447Z,2.15
2022-09-16T17:18:22.572Z,2.33
2022-09-16T17:21:34.885Z,2.13
2022-09-16T17:24:36.818Z,3.08
2022-09-16T17:27:40.104Z,1.77
2022-09-16T17:30:44.261Z,2.63
2022-09-16T17:33:47.683Z,2.35
2022-09-16T17:36:49.663Z,2.20
2022-09-16T17:39:52.070Z,2.05
2022-09-16T17:42:54.238Z,2.78
2022-09-16T17:45:56.454Z,2.58
2022-09-16T17:49:06.890Z,2.53
2022-09-16T17:52:09.132Z,3.45
2022-09-16T17:55:12.019Z,3.67
2022-09-16T17:58:15.625Z,2.38
2022-09-16T18:01:20.298Z,3.05
2022-09-16T18:04:22.351Z,2.83
2022-09-16T18:07:24.555Z,2.60
2022-09-16T18:10:26.853Z,3.33
2022-09-16T18:13:29.114Z,2.85
2022-09-16T18:16:31.485Z,4.50
2022-09-16T18:19:33.789Z,3.47
2022-09-16T18:22:36.003Z,2.67
2022-09-16T18:25:38.908Z,2.47
2022-09-16T18:29:08.159Z,2.33
2022-09-16T18:32:07.883Z,2.97
2022-09-16T18:35:11.956Z,2.67
2022-09-16T18:38:14.053Z,2.33
2022-09-16T18:41:18.817Z,2.83
2022-09-16T18:44:25.293Z,2.53
2022-09-16T18:47:27.324Z,3.47
2022-09-16T18:50:29.511Z,3.40
2022-09-16T18:53:32.112Z,3.63
2022-09-16T18:56:36.198Z,3.08
2022-09-16T18:59:38.377Z,3.45
2022-09-16T19:02:40.512Z,2.65
2022-09-16T19:05:42.739Z,2.65
2022-09-16T19:08:44.928Z,2.97
2022-09-16T19:11:47.851Z,2.85
2022-09-16T19:14:50.137Z,2.78
2022-09-16T19:17:52.329Z,3.17
2022-09-16T19:20:57.738Z,2.92
2022-09-16T19:24:01.970Z,2.92
2022-09-16T19:27:04.187Z,3.10
2022-09-16T19:30:06.914Z,3.38
2022-09-16T19:33:09.071Z,5.57
2022-09-16T19:36:19.080Z,4.38
2022-09-16T19:39:21.548Z,5.00
2022-09-16T19:42:23.629Z,3.47
2022-09-16T19:45:27.855Z,3.83
2022-09-16T19:48:32.701Z,3.80
2022-09-16T19:51:34.920Z,3.70
2022-09-16T19:54:37.085Z,3.90
2022-09-16T19:57:39.383Z,3.05
2022-09-16T20:00:55.775Z,3.55
2022-09-16T20:03:59.755Z,3.80
2022-09-16T20:07:02.228Z,4.13
2022-09-16T20:10:05.385Z,4.05
2022-09-16T20:13:07.816Z,3.55
2022-09-16T20:16:10.190Z,3.25
2022-09-16T20:19:15.368Z,4.32
2022-09-16T20:22:17.389Z,3.42
2022-09-16T20:25:23.420Z,3.45
2022-09-16T20:28:29.760Z,3.42
2022-09-16T20:31:34.349Z,3.90
2022-09-16T20:34:36.628Z,4.03
2022-09-16T20:37:38.716Z,3.97
2022-09-16T20:40:45.012Z,4.70
2022-09-16T20:43:47.857Z,3.80
2022-09-16T20:46:50.540Z,4.22
2022-09-16T20:49:52.779Z,3.90
2022-09-16T20:52:54.730Z,4.28
2022-09-16T20:56:05.345Z,4.68
2022-09-16T20:59:09.300Z,3.92
2022-09-16T21:02:11.490Z,4.25
2022-09-16T21:05:13.503Z,3.58
2022-09-16T21:08:15.533Z,3.78
2022-09-16T21:11:19.698Z,3.47
2022-09-16T21:14:22.701Z,3.97
2022-09-16T21:17:24.686Z,3.20
2022-09-16T21:20:26.745Z,3.63
2022-09-16T21:23:31.668Z,2.60
2022-09-16T21:26:35.687Z,3.53
2022-09-16T21:29:37.738Z,2.97
2022-09-16T21:32:40.180Z,2.78
2022-09-16T21:35:50.975Z,3.85
2022-09-16T21:38:53.261Z,4.55
2022-09-16T21:41:55.207Z,3.97
2022-09-16T21:44:58.231Z,3.83
2022-09-16T21:48:00.249Z,3.88
2022-09-16T21:51:07.564Z,3.63
2022-09-16T21:54:10.410Z,3.58
2022-09-16T21:57:13.471Z,4.03
2022-09-16T22:00:15.875Z,3.50
2022-09-16T22:03:18.649Z,3.20
2022-09-16T22:06:25.773Z,3.50
2022-09-16T22:09:27.857Z,3.90
2022-09-16T22:12:29.626Z,3.95
2022-09-16T22:15:31.562Z,3.50
2022-09-16T22:18:39.919Z,2.83
2022-09-16T22:21:44.236Z,3.08
2022-09-16T22:24:46.159Z,4.03
2022-09-16T22:27:48.143Z,3.80
2022-09-16T22:30:50.148Z,3.60
2022-09-16T22:33:53.929Z,3.45
2022-09-16T22:36:55.903Z,3.42
2022-09-16T22:39:58.066Z,2.90
2022-09-16T22:43:00.108Z,4.57
2022-09-16T22:46:06.556Z,3.50
2022-09-16T22:49:09.117Z,2.85
2022-09-16T22:52:11.043Z,3.63
2022-09-16T22:55:13.045Z,2.72
2022-09-16T22:58:15.181Z,3.95
2022-09-16T23:01:20.008Z,3.55
2022-09-16T23:04:22.585Z,3.15
2022-09-16T23:07:24.719Z,3.55
2022-09-16T23:10:26.655Z,3.80
2022-09-16T23:13:28.634Z,4.10
2022-09-16T23:16:33.138Z,2.92
2022-09-16T23:19:36.561Z,3.60
2022-09-16T23:22:39.775Z,3.20
2022-09-16T23:25:41.894Z,2.75
2022-09-16T23:28:44.830Z,3.47
2022-09-16T23:31:47.356Z,3.35
2022-09-16T23:34:50.291Z,2.75
2022-09-16T23:37:53.454Z,3.03
2022-09-16T23:40:55.646Z,2.83
2022-09-16T23:43:58.421Z,3.35
2022-09-16T23:47:00.616Z,4.63
2022-09-16T23:50:02.724Z,3.70
2022-09-16T23:53:04.805Z,3.08
2022-09-16T23:56:11.651Z,3.63
2022-09-16T23:59:13.666Z,3.58
